createdAt,value
2022-11-23T00:02:08.162Z,99421.72
2022-11-23T00:04:34.915Z,99428.78
2022-11-23T00:07:01.708Z,99423.50
2022-11-23T00:09:28.532Z,99425.25
2022-11-23T00:11:55.368Z,99423.50
2022-11-23T00:14:22.162Z,99419.06
2022-11-23T00:16:48.928Z,99424.34
2022-11-23T00:19:15.764Z,99424.31
2022-11-23T00:21:42.525Z,99423.41
2022-11-23T00:24:12.769Z,99427.78
2022-11-23T00:26:39.583Z,99423.34
2022-11-23T00:29:06.364Z,99422.44
2022-11-23T00:31:33.111Z,99424.19
2022-11-23T00:33:59.873Z,99413.66
2022-11-23T00:36:28.120Z,99422.44
2022-11-23T00:38:54.960Z,99420.72
2022-11-23T00:41:24.601Z,99420.75
2022-11-23T00:43:51.597Z,99426.97
2022-11-23T00:46:28.676Z,99422.63
2022-11-23T00:48:57.281Z,99424.41
2022-11-23T00:51:33.365Z,99427.97
2022-11-23T00:54:01.876Z,99418.31
2022-11-23T00:56:30.310Z,99424.41
2022-11-23T00:58:59.537Z,99424.41
2022-11-23T01:01:30.848Z,99415.63
2022-11-23T01:03:59.123Z,99423.53
2022-11-23T01:06:32.503Z,99422.66
2022-11-23T01:09:13.241Z,99420.06
2022-11-23T01:11:40.022Z,99420.09
2022-11-23T01:14:06.792Z,99424.50
2022-11-23T01:16:41.755Z,99421.91
2022-11-23T01:19:12.475Z,99417.56
2022-11-23T01:21:39.678Z,99423.75
2022-11-23T01:24:14.788Z,99424.63
2022-11-23T01:26:41.999Z,99425.56
2022-11-23T01:29:08.929Z,99426.47
2022-11-23T01:31:36.038Z,99423.81
2022-11-23T01:34:03.977Z,99420.34
2022-11-23T01:36:33.563Z,99428.28
2022-11-23T01:39:03.078Z,99423.03
2022-11-23T01:41:36.780Z,99430.06
2022-11-23T01:44:30.823Z,99431.84
2022-11-23T01:47:03.134Z,99438.84
2022-11-23T01:49:39.722Z,99431.84
2022-11-23T01:52:19.860Z,99433.63
2022-11-23T01:54:54.996Z,99432.72
2022-11-23T01:57:43.388Z,99443.25
2022-11-23T02:00:13.332Z,99439.75
2022-11-23T02:02:49.790Z,99442.38
2022-11-23T02:05:19.827Z,99441.50
2022-11-23T02:07:49.486Z,99442.38
2022-11-23T02:10:17.416Z,99443.22
2022-11-23T02:12:44.183Z,99436.19
2022-11-23T02:15:11.229Z,99441.44
2022-11-23T02:17:38.000Z,99435.31
2022-11-23T02:20:10.280Z,99442.31
2022-11-23T02:23:04.326Z,99435.31
2022-11-23T02:25:46.259Z,99436.19
2022-11-23T02:28:19.115Z,99437.06
2022-11-23T02:30:49.527Z,99440.56
2022-11-23T02:33:16.272Z,99442.31
2022-11-23T02:35:50.928Z,99442.31
2022-11-23T02:38:18.910Z,99437.94
2022-11-23T02:40:46.228Z,99438.81
2022-11-23T02:43:12.992Z,99442.31
2022-11-23T02:45:48.424Z,99439.66
2022-11-23T02:48:15.180Z,99437.03
2022-11-23T02:50:41.927Z,99440.53
2022-11-23T02:53:08.923Z,99439.63
2022-11-23T02:55:35.726Z,99435.22
2022-11-23T02:58:03.992Z,99445.72
2022-11-23T03:00:31.082Z,99443.06
2022-11-23T03:03:00.773Z,99442.16
2022-11-23T03:05:28.078Z,99438.59
2022-11-23T03:07:54.812Z,99431.53
2022-11-23T03:10:21.868Z,99433.22
2022-11-23T03:12:48.631Z,99435.81
2022-11-23T03:15:15.443Z,99440.16
2022-11-23T03:17:42.280Z,99432.22
2022-11-23T03:20:09.590Z,99436.56
2022-11-23T03:22:36.354Z,99433.91
2022-11-23T03:25:03.208Z,99439.13
2022-11-23T03:27:32.665Z,99442.59
2022-11-23T03:29:59.961Z,99440.81
2022-11-23T03:32:26.735Z,99444.31
2022-11-23T03:34:53.470Z,99437.25
2022-11-23T03:37:20.273Z,99446.00
2022-11-23T03:39:47.752Z,99438.94
2022-11-23T03:42:14.611Z,99444.16
2022-11-23T03:44:41.410Z,99439.72
2022-11-23T03:47:08.186Z,99438.81
2022-11-23T03:49:34.968Z,99436.16
2022-11-23T03:52:01.739Z,99437.00
2022-11-23T03:54:28.498Z,99441.34
2022-11-23T03:56:55.248Z,99443.09
2022-11-23T03:59:22.015Z,99439.53
2022-11-23T04:01:48.769Z,99430.75
2022-11-23T04:04:15.542Z,99430.72
2022-11-23T04:06:42.293Z,99425.44
2022-11-23T04:09:09.141Z,99435.09
2022-11-23T04:11:35.886Z,99431.53
2022-11-23T04:14:02.667Z,99438.56
2022-11-23T04:16:29.443Z,99436.81
2022-11-23T04:18:56.218Z,99442.91
2022-11-23T04:21:22.972Z,99437.59
2022-11-23T04:23:49.757Z,99441.09
2022-11-23T04:26:16.588Z,99431.44
2022-11-23T04:28:43.500Z,99434.91
2022-11-23T04:31:10.463Z,99441.97
2022-11-23T04:33:37.208Z,99437.59
2022-11-23T04:36:04.504Z,99437.59
2022-11-23T04:38:31.249Z,99442.91
2022-11-23T04:40:58.058Z,99436.81
2022-11-23T04:43:24.855Z,99443.84
2022-11-23T04:45:51.601Z,99445.66
2022-11-23T04:48:18.387Z,99446.56
2022-11-23T04:50:46.873Z,99446.63
2022-11-23T04:53:13.869Z,99445.75
2022-11-23T04:55:40.797Z,99453.69
2022-11-23T04:58:07.585Z,99448.47
2022-11-23T05:00:34.467Z,99446.72
2022-11-23T05:03:01.805Z,99447.63
2022-11-23T05:05:28.605Z,99458.16
2022-11-23T05:07:55.563Z,99451.13
2022-11-23T05:10:22.338Z,99456.41
2022-11-23T05:12:49.165Z,99461.69
2022-11-23T05:15:15.971Z,99467.81
2022-11-23T05:17:43.138Z,99460.78
2022-11-23T05:20:11.502Z,99460.78
2022-11-23T05:22:38.329Z,99457.25
2022-11-23T05:25:05.897Z,99462.53
2022-11-23T05:27:33.322Z,99459.88
2022-11-23T05:30:00.329Z,99459.00
2022-11-23T05:32:27.509Z,99467.81
2022-11-23T05:34:54.386Z,99461.69
2022-11-23T05:37:22.015Z,99470.47
2022-11-23T05:39:51.325Z,99459.09
2022-11-23T05:42:18.442Z,99466.13
2022-11-23T05:44:45.612Z,99475.84
2022-11-23T05:47:14.917Z,99473.19
2022-11-23T05:49:46.690Z,99482.00
2022-11-23T05:52:19.031Z,99477.63
2022-11-23T05:54:46.363Z,99472.34
2022-11-23T05:57:15.773Z,99476.75
2022-11-23T05:59:46.246Z,99470.63
2022-11-23T06:02:13.587Z,99468.00
2022-11-23T06:04:43.485Z,99473.28
2022-11-23T06:07:10.491Z,99479.41
2022-11-23T06:09:38.119Z,99476.78
2022-11-23T06:12:19.907Z,99477.63
2022-11-23T06:14:46.866Z,99475.00
2022-11-23T06:17:17.067Z,99478.47
2022-11-23T06:19:50.572Z,99477.59
2022-11-23T06:22:22.970Z,99470.56
2022-11-23T06:24:54.722Z,99484.63
2022-11-23T06:27:21.878Z,99486.38
2022-11-23T06:29:48.876Z,99484.59
2022-11-23T06:32:18.923Z,99492.50
2022-11-23T06:34:45.865Z,99490.72
2022-11-23T06:37:13.245Z,99486.34
2022-11-23T06:39:40.677Z,99492.50
2022-11-23T06:42:31.316Z,99492.44
2022-11-23T06:45:00.413Z,99501.19
2022-11-23T06:47:36.957Z,99495.00
2022-11-23T06:50:11.703Z,99509.91
2022-11-23T06:52:48.908Z,99504.59
2022-11-23T06:55:19.006Z,99500.16
2022-11-23T06:58:04.549Z,99502.75
2022-11-23T07:01:17.641Z,99507.09
2022-11-23T07:03:52.860Z,99515.91
2022-11-23T07:06:19.960Z,99508.84
2022-11-23T07:08:55.440Z,99504.41
2022-11-23T07:11:29.283Z,99507.94
2022-11-23T07:13:56.221Z,99507.06
2022-11-23T07:16:25.780Z,99523.75
2022-11-23T07:18:52.812Z,99520.28
2022-11-23T07:21:19.669Z,99525.59
2022-11-23T07:23:46.576Z,99529.16
2022-11-23T07:26:16.028Z,99527.44
2022-11-23T07:28:43.083Z,99536.28
2022-11-23T07:31:17.786Z,99528.41
2022-11-23T07:33:48.027Z,99532.84
2022-11-23T07:36:15.122Z,99531.09
2022-11-23T07:38:48.910Z,99522.31
2022-11-23T07:41:18.941Z,99532.88
2022-11-23T07:43:52.287Z,99533.78
2022-11-23T07:46:24.713Z,99536.44
2022-11-23T07:48:52.938Z,99540.84
2022-11-23T07:51:25.204Z,99543.50
2022-11-23T07:53:56.959Z,99550.53
2022-11-23T07:56:24.442Z,99549.66
2022-11-23T07:58:51.342Z,99549.66
2022-11-23T08:01:27.022Z,99538.19
2022-11-23T08:03:56.620Z,99536.47
2022-11-23T08:06:27.255Z,99534.66
2022-11-23T08:09:21.230Z,99554.00
2022-11-23T08:12:02.459Z,99541.69
2022-11-23T08:14:30.991Z,99555.72
2022-11-23T08:17:04.612Z,99556.56
2022-11-23T08:19:36.199Z,99552.97
2022-11-23T08:22:45.660Z,99560.81
2022-11-23T08:25:18.104Z,99557.22
2022-11-23T08:27:52.042Z,99560.63
2022-11-23T08:30:22.254Z,99557.84
2022-11-23T08:32:51.794Z,99555.09
2022-11-23T08:35:18.915Z,99562.03
2022-11-23T08:38:08.340Z,99554.00
2022-11-23T08:40:45.493Z,99560.97
2022-11-23T08:43:14.903Z,99559.06
2022-11-23T08:45:41.823Z,99552.81
2022-11-23T08:53:39.145Z,99554.34
2022-11-23T08:56:55.057Z,99550.81
2022-11-23T08:59:35.895Z,99550.69
2022-11-23T09:02:02.838Z,99555.03
2022-11-23T09:04:42.270Z,99555.78
2022-11-23T09:07:27.520Z,99553.09
2022-11-23T09:13:14.905Z,99567.94
2022-11-23T09:16:09.520Z,99557.28
2022-11-23T09:18:41.950Z,99562.47
2022-11-23T09:21:20.643Z,99557.97
2022-11-23T09:23:55.984Z,99571.13
2022-11-23T09:26:41.429Z,99561.38
2022-11-23T09:29:11.376Z,99564.88
2022-11-23T09:31:58.226Z,99564.75
2022-11-23T09:34:48.335Z,99571.78
2022-11-23T09:37:38.122Z,99569.94
2022-11-23T09:41:21.087Z,99570.78
2022-11-23T09:44:41.414Z,99574.25
2022-11-23T09:48:22.376Z,99574.22
2022-11-23T09:51:27.558Z,99570.69
2022-11-23T09:54:32.883Z,99578.47
2022-11-23T09:57:01.809Z,99576.63
2022-11-23T09:59:40.483Z,99575.63
2022-11-23T10:02:24.748Z,99573.81
2022-11-23T10:09:13.013Z,99584.16
2022-11-23T10:12:16.004Z,99581.41
2022-11-23T10:15:24.738Z,99583.13
2022-11-23T10:18:38.464Z,99586.56
2022-11-23T10:21:15.336Z,99575.97
2022-11-23T10:23:55.229Z,99581.16
2022-11-23T10:26:30.745Z,99581.97
2022-11-23T10:29:25.800Z,99584.53
2022-11-23T10:31:56.974Z,99583.59
2022-11-23T10:35:04.726Z,99587.91
2022-11-23T10:37:33.382Z,99583.47
2022-11-23T10:40:00.418Z,99577.19
2022-11-23T10:42:50.222Z,99577.09
2022-11-23T10:45:27.244Z,99585.84
2022-11-23T10:48:01.270Z,99588.41
2022-11-23T10:50:40.408Z,99589.22
2022-11-23T10:53:38.293Z,99587.31
2022-11-23T10:56:13.407Z,99593.47
2022-11-23T10:58:48.416Z,99593.34
2022-11-23T11:01:30.415Z,99583.53
2022-11-23T11:04:33.673Z,99579.94
2022-11-23T11:07:37.073Z,99586.94
2022-11-23T11:10:14.963Z,99584.22
2022-11-23T11:12:58.046Z,99575.31
2022-11-23T11:15:32.948Z,99577.88
2022-11-23T11:18:05.132Z,99577.81
2022-11-23T11:20:35.557Z,99576.84
2022-11-23T11:23:39.508Z,99580.25
2022-11-23T11:26:24.287Z,99574.91
2022-11-23T11:28:54.571Z,99574.91
2022-11-23T11:31:31.407Z,99572.19
2022-11-23T11:34:36.223Z,99559.69
2022-11-23T11:37:47.545Z,99564.00
2022-11-23T11:40:38.248Z,99571.91
2022-11-23T11:43:40.584Z,99569.13
2022-11-23T11:46:32.015Z,99573.47
2022-11-23T11:49:31.608Z,99576.97
2022-11-23T11:52:26.409Z,99570.69
2022-11-23T11:55:35.612Z,99568.94
2022-11-23T11:58:28.197Z,99571.66
2022-11-23T12:01:38.290Z,99567.31
2022-11-23T12:05:08.717Z,99570.03
2022-11-23T12:11:07.893Z,99562.00
2022-11-23T12:13:45.667Z,99558.44
2022-11-23T12:17:17.325Z,99558.34
2022-11-23T12:20:25.074Z,99556.44
2022-11-23T12:23:20.161Z,99552.59
2022-11-23T12:26:40.726Z,99548.69
2022-11-23T12:29:27.171Z,99537.94
2022-11-23T12:32:42.540Z,99543.97
2022-11-23T12:35:50.454Z,99542.25
2022-11-23T12:38:41.478Z,99536.09
2022-11-23T12:41:42.913Z,99541.41
2022-11-23T12:44:47.441Z,99545.91
2022-11-23T12:48:01.470Z,99537.97
2022-11-23T12:51:08.741Z,99536.31
2022-11-23T12:54:17.289Z,99534.66
2022-11-23T12:57:32.340Z,99534.81
2022-11-23T13:00:30.024Z,99534.97
2022-11-23T13:03:38.563Z,99536.88
2022-11-23T13:06:24.233Z,99531.66
2022-11-23T13:14:37.737Z,99527.47
2022-11-23T13:16:33.808Z,99530.81
2022-11-23T13:18:30.230Z,99524.84
2022-11-23T13:25:39.667Z,99525.09
2022-11-23T13:28:38.305Z,99521.53
2022-11-23T13:31:31.555Z,99520.59
2022-11-23T13:34:41.773Z,99525.03
2022-11-23T13:37:13.233Z,99519.81
2022-11-23T13:39:58.448Z,99517.97
2022-11-23T13:42:27.274Z,99525.09
2022-11-23T13:45:39.152Z,99522.41
2022-11-23T13:48:13.324Z,99511.84
2022-11-23T13:50:49.433Z,99521.53
2022-11-23T13:53:29.498Z,99523.28
2022-11-23T13:56:16.010Z,99515.34
2022-11-23T13:58:52.806Z,99516.28
2022-11-23T14:02:23.104Z,99503.91
2022-11-23T14:04:50.526Z,99507.53
2022-11-23T14:07:59.043Z,99503.13
2022-11-23T14:10:44.071Z,99502.31
2022-11-23T14:13:40.372Z,99504.19
2022-11-23T14:20:40.669Z,99510.69
2022-11-23T14:23:57.327Z,99508.13
2022-11-23T14:27:47.531Z,99514.44
2022-11-23T14:30:53.792Z,99520.81
2022-11-23T14:34:11.287Z,99512.97
2022-11-23T14:37:18.654Z,99517.47
2022-11-23T14:40:03.009Z,99509.66
2022-11-23T14:42:59.569Z,99511.53
2022-11-23T14:45:46.710Z,99515.13
2022-11-23T14:49:01.332Z,99523.19
2022-11-23T15:06:18.730Z,99524.16
2022-11-23T15:09:28.254Z,99525.97
2022-11-23T15:12:20.355Z,99527.84
2022-11-23T15:14:56.114Z,99529.63
2022-11-23T15:17:27.040Z,99530.56
2022-11-23T15:20:01.326Z,99523.53
2022-11-23T15:22:29.092Z,99530.63
2022-11-23T15:25:08.222Z,99539.50
2022-11-23T15:27:40.629Z,99537.78
2022-11-23T15:30:31.121Z,99529.91
2022-11-23T15:33:00.150Z,99529.09
2022-11-23T15:35:33.862Z,99547.63
2022-11-23T15:38:03.438Z,99545.94
2022-11-23T15:40:35.713Z,99543.34
2022-11-23T15:43:02.952Z,99547.84
2022-11-23T15:45:41.992Z,99545.19
2022-11-23T15:48:22.001Z,99547.97
2022-11-23T15:50:56.824Z,99549.75
2022-11-23T15:53:50.527Z,99552.47
2022-11-23T15:56:27.556Z,99548.16
2022-11-23T15:58:55.215Z,99557.03
2022-11-23T16:01:22.717Z,99561.50
2022-11-23T16:04:01.018Z,99554.53
2022-11-23T16:06:43.048Z,99559.00
2022-11-23T16:09:53.393Z,99555.59
2022-11-23T16:12:33.705Z,99562.72
2022-11-23T16:15:41.344Z,99562.84
2022-11-23T16:18:23.237Z,99549.69
2022-11-23T16:21:00.989Z,99554.16
2022-11-23T16:23:44.171Z,99554.22
2022-11-23T16:26:12.854Z,99552.50
2022-11-23T16:28:52.744Z,99555.16
2022-11-23T16:31:29.902Z,99556.03
2022-11-23T16:33:56.947Z,99550.81
2022-11-23T16:36:28.353Z,99549.06
2022-11-23T16:39:03.958Z,99558.75
2022-11-23T16:41:32.402Z,99556.09
2022-11-23T16:43:59.252Z,99556.09
2022-11-23T16:46:26.152Z,99547.34
2022-11-23T16:48:55.423Z,99554.41
2022-11-23T16:51:22.257Z,99556.22
2022-11-23T16:56:36.450Z,99566.84
2022-11-23T16:59:03.390Z,99564.19
2022-11-23T17:01:31.363Z,99573.91
2022-11-23T17:03:58.428Z,99570.41
2022-11-23T17:06:25.396Z,99583.66
2022-11-23T17:09:00.510Z,99588.97
2022-11-23T17:11:34.480Z,99588.13
2022-11-23T17:14:01.296Z,99584.63
2022-11-23T17:16:28.113Z,99589.94
2022-11-23T17:18:54.908Z,99597.00
2022-11-23T17:21:21.691Z,99594.41
2022-11-23T17:23:48.512Z,99593.53
2022-11-23T17:26:52.990Z,99590.94
2022-11-23T17:29:20.865Z,99590.97
2022-11-23T17:31:50.238Z,99592.75
2022-11-23T17:34:18.186Z,99594.53
2022-11-23T17:36:47.361Z,99610.38
2022-11-23T17:39:21.477Z,99606.84
2022-11-23T17:41:48.641Z,99622.72
2022-11-23T17:44:17.444Z,99620.97
2022-11-23T17:46:45.154Z,99633.31
2022-11-23T17:49:14.941Z,99635.97
2022-11-23T17:51:42.994Z,99645.69
2022-11-23T17:54:10.041Z,99643.97
2022-11-23T17:56:37.513Z,99636.94
2022-11-23T17:59:06.548Z,99646.59
2022-11-23T18:01:33.693Z,99642.25
2022-11-23T18:04:04.689Z,99646.66
2022-11-23T18:06:31.669Z,99651.97
2022-11-23T18:08:58.465Z,99649.31
2022-11-23T18:11:25.439Z,99652.00
2022-11-23T18:13:52.378Z,99660.81
2022-11-23T18:16:20.479Z,99660.84
2022-11-23T18:18:47.918Z,99660.88
2022-11-23T18:21:15.234Z,99660.00
2022-11-23T18:23:42.602Z,99665.31
2022-11-23T18:26:25.861Z,99667.06
2022-11-23T18:28:53.574Z,99672.38
2022-11-23T18:31:20.485Z,99686.44
2022-11-23T18:33:47.662Z,99679.44
2022-11-23T18:36:14.519Z,99688.25
2022-11-23T18:38:44.707Z,99682.13
2022-11-23T18:41:12.354Z,99680.38
2022-11-23T18:43:39.147Z,99687.44
2022-11-23T18:46:08.082Z,99683.94
2022-11-23T18:48:34.952Z,99686.59
2022-11-23T18:51:03.436Z,99688.34
2022-11-23T18:53:32.249Z,99690.16
2022-11-23T18:56:06.792Z,99696.28
2022-11-23T18:58:38.596Z,99703.31
2022-11-23T19:01:20.987Z,99706.00
2022-11-23T19:03:52.672Z,99706.91
2022-11-23T19:06:22.135Z,99706.91
2022-11-23T19:08:57.309Z,99705.16
2022-11-23T19:11:27.326Z,99702.53
2022-11-23T19:13:56.689Z,99708.69
2022-11-23T19:16:28.742Z,99713.13
2022-11-23T19:19:05.603Z,99709.59
2022-11-23T19:21:35.725Z,99714.03
2022-11-23T19:24:03.579Z,99714.00
2022-11-23T19:26:31.147Z,99714.91
2022-11-23T19:28:59.336Z,99714.06
2022-11-23T19:31:29.746Z,99714.06
2022-11-23T19:34:02.379Z,99715.81
2022-11-23T19:36:31.425Z,99713.19
2022-11-23T19:39:00.488Z,99710.59
2022-11-23T19:41:30.730Z,99717.59
2022-11-23T19:43:59.688Z,99714.13
2022-11-23T19:46:29.737Z,99714.97
2022-11-23T19:48:57.594Z,99707.94
2022-11-23T19:51:25.747Z,99712.38
2022-11-23T19:53:52.609Z,99722.03
2022-11-23T19:56:25.320Z,99711.50
2022-11-23T19:58:54.005Z,99721.16
2022-11-23T20:01:23.178Z,99715.88
2022-11-23T20:03:53.624Z,99722.91
2022-11-23T20:06:25.271Z,99717.66
2022-11-23T20:08:59.024Z,99717.66
2022-11-23T20:11:28.246Z,99719.41
2022-11-23T20:13:55.864Z,99728.22
2022-11-23T20:16:24.770Z,99728.22
2022-11-23T20:19:10.124Z,99727.31
2022-11-23T20:21:38.016Z,99724.69
2022-11-23T20:24:12.232Z,99734.34
2022-11-23T20:26:39.504Z,99747.56
2022-11-23T20:29:08.382Z,99747.56
2022-11-23T20:31:36.211Z,99747.56
2022-11-23T20:34:07.399Z,99749.31
2022-11-23T20:36:37.938Z,99747.56
2022-11-23T20:39:07.872Z,99753.69
2022-11-23T20:41:37.461Z,99758.06
2022-11-23T20:44:11.788Z,99756.31
2022-11-23T20:47:01.049Z,99762.47
2022-11-23T20:49:25.733Z,99765.97
2022-11-23T20:51:52.474Z,99762.44
2022-11-23T20:54:19.221Z,99765.06
2022-11-23T20:56:46.027Z,99773.81
2022-11-23T20:59:12.867Z,99779.06
2022-11-23T21:01:40.896Z,99779.06
2022-11-23T21:04:09.020Z,99783.44
2022-11-23T21:06:39.543Z,99779.88
2022-11-23T21:09:08.881Z,99783.38
2022-11-23T21:11:54.410Z,99785.13
2022-11-23T21:14:34.142Z,99786.84
2022-11-23T21:17:01.285Z,99789.47
2022-11-23T21:19:31.197Z,99792.09
2022-11-23T21:22:02.255Z,99793.81
2022-11-23T21:24:29.124Z,99800.84
2022-11-23T21:26:55.898Z,99796.44
2022-11-23T21:29:22.953Z,99804.34
2022-11-23T21:31:50.346Z,99805.19
2022-11-23T21:34:22.473Z,99809.56
2022-11-23T21:36:50.483Z,99821.88
2022-11-23T21:39:17.846Z,99824.50
2022-11-23T21:41:45.484Z,99822.72
2022-11-23T21:44:12.623Z,99826.25
2022-11-23T21:46:41.257Z,99831.50
2022-11-23T21:49:08.498Z,99831.50
2022-11-23T21:51:37.043Z,99830.59
2022-11-23T21:54:07.520Z,99829.72
2022-11-23T21:56:34.332Z,99827.94
2022-11-23T21:59:01.260Z,99831.44
2022-11-23T22:01:31.581Z,99837.59
2022-11-23T22:04:03.649Z,99829.66
2022-11-23T22:06:30.427Z,99835.78
2022-11-23T22:08:59.854Z,99833.16
2022-11-23T22:11:33.084Z,99842.84
2022-11-23T22:14:02.111Z,99848.13
2022-11-23T22:16:32.708Z,99831.41
2022-11-23T22:19:00.603Z,99832.28
2022-11-23T22:21:32.914Z,99846.34
2022-11-23T22:24:00.213Z,99834.91
2022-11-23T22:26:27.686Z,99847.25
2022-11-23T22:28:55.580Z,99850.75
2022-11-23T22:31:25.548Z,99861.28
2022-11-23T22:33:53.544Z,99862.19
2022-11-23T22:36:23.528Z,99854.25
2022-11-23T22:39:02.579Z,99864.81
2022-11-23T22:41:34.812Z,99864.81
2022-11-23T22:44:01.774Z,99862.16
2022-11-23T22:46:29.482Z,99866.56
2022-11-23T22:48:59.352Z,99866.56
2022-11-23T22:51:28.472Z,99875.34
2022-11-23T22:53:57.746Z,99871.81
2022-11-23T22:56:25.699Z,99876.22
2022-11-23T22:58:52.764Z,99872.69
2022-11-23T23:01:23.668Z,99881.47
2022-11-23T23:03:56.217Z,99873.56
2022-11-23T23:06:26.758Z,99874.41
2022-11-23T23:09:01.193Z,99878.81
2022-11-23T23:11:31.423Z,99874.41
2022-11-23T23:13:58.359Z,99883.25
2022-11-23T23:16:26.082Z,99880.59
2022-11-23T23:18:56.775Z,99884.13
2022-11-23T23:21:25.780Z,99887.63
2022-11-23T23:23:55.636Z,99885.00
2022-11-23T23:26:25.316Z,99890.28
2022-11-23T23:28:57.441Z,99896.44
2022-11-23T23:31:25.230Z,99895.56
2022-11-23T23:33:53.566Z,99895.56
2022-11-23T23:36:22.070Z,99888.53
2022-11-23T23:38:49.053Z,99895.59
2022-11-23T23:41:15.857Z,99902.63
2022-11-23T23:43:43.060Z,99897.38
2022-11-23T23:46:12.699Z,99894.72
2022-11-23T23:48:41.058Z,99902.66
2022-11-23T23:51:23.399Z,99900.03
2022-11-23T23:53:51.523Z,99902.66
2022-11-23T23:56:25.226Z,99900.03
2022-11-23T23:58:52.501Z,99906.19
